Time;durP1;ratioP1;P1;durP2;ratioP2;P2;SDS_P1;SDS_P2;PMS_P1;PMS_P2;Temp;Humidity;BMP_temperature;BMP_pressure;BME280_temperature;BME280_humidity;BME280_pressure;Samples;Min_cycle;Max_cycle;Signal;HPM_P1;HPM_P2
2022/10/19 00:01:20;;;;;;;7.83;3.12;;;;;;;11.75;100.00;99500.42;1777226;78;21122;-48
2022/10/19 00:03:52;;;;;;;4.62;2.02;;;;;;;11.73;100.00;99493.77;1781885;78;21060;-48
2022/10/19 00:06:27;;;;;;;8.30;3.37;;;;;;;11.72;100.00;99489.80;1773085;78;21068;-46
2022/10/19 00:08:56;;;;;;;6.60;2.95;;;;;;;11.71;100.00;99486.70;1778458;78;21810;-47
2022/10/19 00:11:23;;;;;;;5.50;2.50;;;;;;;11.69;100.00;99484.56;1775062;78;21366;-47
2022/10/19 00:13:50;;;;;;;8.95;3.33;;;;;;;11.67;100.00;99487.34;1776186;78;21747;-47
2022/10/19 00:16:18;;;;;;;11.15;3.12;;;;;;;11.66;100.00;99476.17;1775306;78;21720;-46
2022/10/19 00:18:44;;;;;;;9.30;3.42;;;;;;;11.65;100.00;99470.89;1778726;78;21063;-46
2022/10/19 00:21:14;;;;;;;6.10;2.50;;;;;;;11.64;100.00;99473.19;1778118;78;22441;-46
2022/10/19 00:23:42;;;;;;;6.53;2.60;;;;;;;11.62;100.00;99458.45;1781376;78;21095;-47
2022/10/19 00:26:08;;;;;;;7.00;3.15;;;;;;;11.61;100.00;99456.70;1772644;78;21080;-47
2022/10/19 00:28:34;;;;;;;4.70;2.30;;;;;;;11.60;100.00;99447.34;1774172;78;21121;-47
2022/10/19 00:31:06;;;;;;;7.22;3.20;;;;;;;11.59;100.00;99449.66;1777297;78;21151;-47
2022/10/19 00:33:34;;;;;;;7.67;2.77;;;;;;;11.58;100.00;99447.43;1776561;78;21114;-47
2022/10/19 00:36:01;;;;;;;7.15;2.17;;;;;;;11.59;100.00;99438.87;1780745;78;21020;-47
2022/10/19 00:38:28;;;;;;;9.65;2.90;;;;;;;11.59;100.00;99426.73;1785034;78;21175;-48
2022/10/19 00:40:54;;;;;;;11.97;3.17;;;;;;;11.59;100.00;99428.08;1788350;78;21421;-46
2022/10/19 00:43:23;;;;;;;5.22;2.55;;;;;;;11.59;100.00;99424.91;1780333;78;21056;-47
2022/10/19 00:45:51;;;;;;;11.57;2.77;;;;;;;11.57;100.00;99420.08;1783306;78;21080;-47
2022/10/19 00:48:25;;;;;;;6.45;2.52;;;;;;;11.57;100.00;99418.73;1784433;78;21056;-47
2022/10/19 00:50:53;;;;;;;4.60;2.70;;;;;;;11.57;100.00;99423.28;1784942;78;21071;-46
2022/10/19 00:53:20;;;;;;;7.70;3.42;;;;;;;11.55;100.00;99422.49;1783061;78;21073;-47
2022/10/19 00:55:47;;;;;;;8.30;2.27;;;;;;;11.54;100.00;99416.23;1783782;78;21051;-46
2022/10/19 00:58:13;;;;;;;10.20;2.80;;;;;;;11.54;100.00;99409.97;1783448;78;21907;-47
2022/10/19 01:00:40;;;;;;;10.48;2.58;;;;;;;11.53;100.00;99409.10;1784651;78;20927;-48
2022/10/19 01:03:06;;;;;;;6.60;2.85;;;;;;;11.53;100.00;99398.80;1778891;78;21052;-47
2022/10/19 01:05:33;;;;;;;13.08;2.90;;;;;;;11.52;100.00;99395.23;1790478;78;21131;-47
2022/10/19 01:08:01;;;;;;;6.90;2.47;;;;;;;11.53;100.00;99389.36;1782499;78;21095;-47
2022/10/19 01:10:38;;;;;;;10.65;2.83;;;;;;;11.53;100.00;99382.14;1784435;78;21921;-47
2022/10/19 01:13:45;;;;;;;7.12;3.10;;;;;;;11.53;100.00;99378.10;1764601;78;21079;-46
2022/10/19 01:16:50;;;;;;;8.33;2.87;;;;;;;11.54;100.00;99383.02;1785210;78;21036;-46
2022/10/19 01:20:05;;;;;;;5.30;2.60;;;;;;;11.51;100.00;99380.48;1781713;78;21067;-46
2022/10/19 01:23:23;;;;;;;9.08;2.87;;;;;;;11.49;100.00;99379.22;1783036;78;21009;-47
2022/10/19 01:26:25;;;;;;;7.78;2.85;;;;;;;11.49;100.00;99375.66;1779271;78;21101;-47
2022/10/19 01:29:29;;;;;;;9.13;3.30;;;;;;;11.47;100.00;99368.16;1781705;78;21044;-47
2022/10/19 01:32:01;;;;;;;5.60;2.27;;;;;;;11.45;100.00;99363.33;1782675;78;21550;-47
2022/10/19 01:34:45;;;;;;;7.72;3.40;;;;;;;11.45;100.00;99366.03;1791792;78;21041;-46
2022/10/19 01:37:23;;;;;;;8.77;3.43;;;;;;;11.44;100.00;99366.98;1790084;78;21518;-47
2022/10/19 01:40:09;;;;;;;7.25;3.77;;;;;;;11.43;100.00;99361.20;1782792;78;23292;-47
2022/10/19 01:43:03;;;;;;;6.22;3.05;;;;;;;11.42;100.00;99360.33;1786592;78;21146;-45
2022/10/19 01:45:49;;;;;;;5.83;2.83;;;;;;;11.41;100.00;99345.59;1791638;78;21084;-47
2022/10/19 01:48:29;;;;;;;5.90;2.47;;;;;;;11.38;100.00;99353.39;1760850;78;21498;-47
2022/10/19 01:51:09;;;;;;;9.25;3.35;;;;;;;11.38;100.00;99346.66;1806481;77;21321;-46
2022/10/19 01:53:39;;;;;;;6.33;3.60;;;;;;;11.38;100.00;99342.14;1751452;78;22649;-47
2022/10/19 01:56:07;;;;;;;5.05;2.98;;;;;;;11.37;100.00;99339.05;1769245;79;21093;-46
2022/10/19 01:58:35;;;;;;;4.65;2.85;;;;;;;11.37;100.00;99339.53;1774054;78;21041;-46
2022/10/19 02:01:05;;;;;;;11.08;3.77;;;;;;;11.36;100.00;99329.22;1786247;78;21029;-48
2022/10/19 02:03:33;;;;;;;3.47;2.67;;;;;;;11.35;100.00;99327.48;1787264;78;21064;-46
2022/10/19 02:06:00;;;;;;;6.10;2.52;;;;;;;11.36;100.00;99331.92;1784263;78;21798;-48
2022/10/19 02:08:30;;;;;;;7.42;2.52;;;;;;;11.36;100.00;99321.14;1757183;78;21045;-45
2022/10/19 02:10:57;;;;;;;6.65;3.67;;;;;;;11.36;100.00;99327.01;1784936;78;21095;-47
2022/10/19 02:13:25;;;;;;;7.85;4.15;;;;;;;11.37;100.00;99324.70;1756703;79;21072;-48
2022/10/19 02:15:54;;;;;;;7.03;2.67;;;;;;;11.36;100.00;99329.22;1788227;78;21021;-46
2022/10/19 02:18:26;;;;;;;10.68;3.80;;;;;;;11.37;100.00;99330.97;1786831;78;22596;-46
2022/10/19 02:20:53;;;;;;;9.50;3.75;;;;;;;11.38;100.00;99341.27;1785361;78;21025;-47
2022/10/19 02:23:21;;;;;;;9.45;3.15;;;;;;;11.38;100.00;99334.53;1789434;78;21534;-46
2022/10/19 02:25:49;;;;;;;6.87;2.83;;;;;;;11.36;100.00;99321.14;1759728;78;21079;-46
2022/10/19 02:28:15;;;;;;;5.28;3.37;;;;;;;11.36;100.00;99319.80;1782260;78;21372;-47
2022/10/19 02:30:42;;;;;;;6.25;3.72;;;;;;;11.36;100.00;99320.27;1788714;78;21905;-46
2022/10/19 02:33:11;;;;;;;8.48;3.95;;;;;;;11.34;100.00;99323.05;1784637;78;21095;-47
2022/10/19 02:35:38;;;;;;;6.80;3.08;;;;;;;11.33;100.00;99319.95;1784341;78;21684;-46
2022/10/19 02:38:05;;;;;;;8.08;3.67;;;;;;;11.32;100.00;99320.91;1783020;78;21076;-47
2022/10/19 02:40:33;;;;;;;6.65;4.47;;;;;;;11.30;100.00;99322.86;1782348;78;21044;-47
2022/10/19 02:43:04;;;;;;;11.57;3.47;;;;;;;11.29;100.00;99326.50;1783170;78;21781;-47
2022/10/19 02:45:33;;;;;;;8.65;3.85;;;;;;;11.29;100.00;99320.24;1782782;78;20977;-47
2022/10/19 02:49:15;;;;;;;8.87;4.40;;;;;;;11.26;100.00;99317.23;1848930;75;22395;-47
2022/10/19 02:51:58;;;;;;;10.88;3.77;;;;;;;11.26;100.00;99320.41;1816644;77;21507;-46
2022/10/19 02:54:26;;;;;;;8.45;4.47;;;;;;;11.24;100.00;99313.75;1777370;78;21836;-47
2022/10/19 02:56:52;;;;;;;7.15;3.30;;;;;;;11.24;100.00;99308.36;1776349;78;21000;-47
2022/10/19 02:59:19;;;;;;;6.67;4.05;;;;;;;11.23;100.00;99312.02;1758290;79;21099;-47
2022/10/19 03:01:46;;;;;;;10.30;4.35;;;;;;;11.22;100.00;99315.70;1737701;80;21073;-46
2022/10/19 03:04:12;;;;;;;8.00;3.67;;;;;;;11.19;100.00;99310.95;1759332;79;21522;-47
2022/10/19 03:06:39;;;;;;;7.97;4.00;;;;;;;11.16;100.00;99313.33;1739081;80;21907;-48
2022/10/19 03:09:07;;;;;;;9.25;4.35;;;;;;;11.15;100.00;99306.68;1741799;79;21072;-46
2022/10/19 03:11:33;;;;;;;7.42;4.17;;;;;;;11.13;100.00;99309.48;1734842;80;21067;-47
2022/10/19 03:14:00;;;;;;;11.40;4.75;;;;;;;11.11;100.00;99296.58;1743289;79;21045;-47
2022/10/19 03:16:28;;;;;;;16.27;4.30;;;;;;;11.10;100.00;99300.70;1738480;79;21068;-48
2022/10/19 03:18:54;;;;;;;6.87;4.12;;;;;;;11.09;100.00;99289.05;1740074;79;21941;-48
2022/10/19 03:21:21;;;;;;;8.50;4.83;;;;;;;11.09;100.00;99285.02;1737347;79;21627;-47
2022/10/19 03:23:47;;;;;;;11.22;4.65;;;;;;;11.10;100.00;99288.58;1742550;79;21554;-47
2022/10/19 03:26:15;;;;;;;10.10;5.28;;;;;;;11.09;100.00;99272.89;1743837;79;21072;-47
2022/10/19 03:28:41;;;;;;;9.35;5.30;;;;;;;11.12;100.00;99287.55;1741936;79;21051;-46
2022/10/19 03:31:08;;;;;;;14.73;5.60;;;;;;;11.14;100.00;99284.30;1745119;79;21806;-46
2022/10/19 03:33:35;;;;;;;8.28;4.85;;;;;;;11.18;100.00;99287.66;1746514;79;21088;-48
2022/10/19 03:36:28;;;;;;;8.20;5.78;;;;;;;11.21;100.00;99276.71;1750277;79;21087;-47
2022/10/19 03:38:57;;;;;;;10.58;4.80;;;;;;;11.26;100.00;99278.65;1742469;79;21385;-48
2022/10/19 03:41:26;;;;;;;8.03;4.62;;;;;;;11.31;100.00;99281.96;1745516;79;21636;-47
2022/10/19 03:43:52;;;;;;;10.78;5.58;;;;;;;11.38;100.00;99272.08;1741649;79;23108;-47
2022/10/19 03:46:19;;;;;;;10.50;5.08;;;;;;;11.44;100.00;99262.75;1740568;79;21052;-47
2022/10/19 03:48:47;;;;;;;15.45;6.10;;;;;;;11.54;100.00;99261.72;1736695;79;21142;-48
2022/10/19 03:51:16;;;;;;;12.05;5.80;;;;;;;11.61;100.00;99260.39;1770652;78;21053;-48
2022/10/19 03:53:43;;;;;;;15.03;7.00;;;;;;;11.68;100.00;99253.66;1738264;80;21103;-48
2022/10/19 03:56:17;;;;;;;11.73;6.85;;;;;;;11.74;100.00;99251.94;1763216;78;21929;-49
2022/10/19 03:58:45;;;;;;;7.78;5.60;;;;;;;11.79;100.00;99255.27;1743616;80;21020;-47
2022/10/19 04:01:15;;;;;;;12.20;6.92;;;;;;;11.83;100.00;99263.55;1757087;79;21052;-48
2022/10/19 04:03:42;;;;;;;11.85;6.55;;;;;;;11.85;100.00;99269.72;1749295;79;21055;-48
2022/10/19 04:06:12;;;;;;;16.57;6.60;;;;;;;11.87;100.00;99268.28;1750237;79;21067;-48
2022/10/19 04:08:39;;;;;;;14.47;7.08;;;;;;;11.88;100.00;99273.59;1752699;79;21854;-48
2022/10/19 04:11:10;;;;;;;12.15;5.83;;;;;;;11.89;100.00;99279.38;1752301;79;21119;-50
2022/10/19 04:13:38;;;;;;;9.55;5.53;;;;;;;11.91;100.00;99284.17;1740030;79;21064;-47
2022/10/19 04:16:06;;;;;;;8.03;6.12;;;;;;;11.94;100.00;99290.73;1746357;80;21055;-47
2022/10/19 04:18:33;;;;;;;8.83;5.58;;;;;;;11.95;100.00;99280.34;1745621;80;21056;-47
2022/10/19 04:21:02;;;;;;;11.73;5.70;;;;;;;11.97;100.00;99281.12;1739650;80;21799;-48
2022/10/19 04:23:32;;;;;;;10.93;6.53;;;;;;;12.01;100.00;99283.13;1764429;78;21570;-48
2022/10/19 04:26:05;;;;;;;13.40;6.28;;;;;;;12.03;100.00;99277.16;1739892;80;21547;-47
2022/10/19 04:28:32;;;;;;;9.65;6.58;;;;;;;12.04;100.00;99281.60;1749127;79;21410;-47
2022/10/19 04:31:03;;;;;;;8.20;7.22;;;;;;;12.04;100.00;99273.52;1748817;79;21157;-47
2022/10/19 04:33:29;;;;;;;16.23;7.45;;;;;;;12.03;100.00;99268.59;1763521;78;21832;-48
2022/10/19 04:36:01;;;;;;;15.55;7.30;;;;;;;12.02;100.00;99270.91;1742958;80;21037;-49
2022/10/19 04:38:31;;;;;;;9.43;6.97;;;;;;;12.02;100.00;99265.98;1755454;80;21443;-47
2022/10/19 04:41:02;;;;;;;13.22;6.67;;;;;;;12.03;100.00;99266.38;1761911;79;21052;-48
2022/10/19 04:43:28;;;;;;;11.08;6.28;;;;;;;12.02;100.00;99265.98;1749013;79;21060;-47
2022/10/19 04:45:55;;;;;;;7.22;5.35;;;;;;;12.02;100.00;99273.60;1755412;79;22573;-47
2022/10/19 04:48:21;;;;;;;13.25;6.95;;;;;;;12.01;100.00;99263.77;1752213;79;21537;-48
2022/10/19 04:50:48;;;;;;;13.60;6.45;;;;;;;12.01;100.00;99263.77;1749376;79;21116;-47
2022/10/19 04:53:18;;;;;;;7.78;6.00;;;;;;;12.06;100.00;99263.50;1751413;79;21783;-47
2022/10/19 04:55:45;;;;;;;10.60;7.55;;;;;;;12.07;100.00;99266.11;1710780;81;21141;-48
2022/10/19 04:58:11;;;;;;;11.27;7.30;;;;;;;12.12;100.00;99291.44;1721929;81;21893;-47
2022/10/19 05:00:38;;;;;;;10.82;6.90;;;;;;;12.14;100.00;99305.70;1717644;81;21067;-48
2022/10/19 05:03:05;;;;;;;14.60;7.92;;;;;;;12.12;100.00;99300.41;1715710;81;21052;-47
2022/10/19 05:05:33;;;;;;;11.53;7.20;;;;;;;12.12;100.00;99292.78;1714739;81;21371;-47
2022/10/19 05:08:00;;;;;;;16.45;8.05;;;;;;;12.10;100.00;99292.00;1717244;81;21096;-47
2022/10/19 05:10:26;;;;;;;10.45;7.15;;;;;;;12.08;100.00;99300.19;1720548;82;21858;-48
2022/10/19 05:12:53;;;;;;;13.83;7.70;;;;;;;12.06;100.00;99302.61;1712035;82;21112;-47
2022/10/19 05:15:20;;;;;;;10.15;6.55;;;;;;;12.03;100.00;99303.66;1714406;82;21403;-48
2022/10/19 05:17:47;;;;;;;11.85;7.25;;;;;;;12.01;100.00;99312.80;1718374;82;21650;-49
2022/10/19 05:20:13;;;;;;;11.60;6.87;;;;;;;12.00;100.00;99313.76;1710692;82;21159;-47
2022/10/19 05:22:40;;;;;;;10.35;7.45;;;;;;;12.11;100.00;99324.30;1717301;82;22907;-48
2022/10/19 05:25:07;;;;;;;15.43;8.53;;;;;;;12.57;100.00;99305.73;1712830;81;21068;-48
2022/10/19 05:27:34;;;;;;;13.30;8.40;;;;;;;12.89;100.00;99312.15;1713700;82;21512;-49
2022/10/19 05:30:01;;;;;;;11.73;8.33;;;;;;;12.98;100.00;99306.63;1716366;81;21004;-48
2022/10/19 05:32:27;;;;;;;14.83;8.18;;;;;;;12.97;100.00;99292.73;1719558;81;21025;-49
2022/10/19 05:34:54;;;;;;;12.98;8.63;;;;;;;12.89;100.00;99310.80;1717653;81;21902;-49
2022/10/19 05:37:20;;;;;;;12.63;9.45;;;;;;;12.79;100.00;99317.75;1718251;81;20994;-48
2022/10/19 05:39:46;;;;;;;11.00;7.60;;;;;;;12.70;100.00;99331.84;1716620;81;21057;-49
2022/10/19 05:42:13;;;;;;;14.15;8.35;;;;;;;12.61;100.00;99330.20;1716495;81;21765;-48
2022/10/19 05:44:39;;;;;;;11.08;7.20;;;;;;;12.49;100.00;99342.66;1717880;81;21013;-49
2022/10/19 05:47:06;;;;;;;10.80;7.55;;;;;;;12.40;100.00;99341.88;1717179;81;22577;-48
2022/10/19 05:49:32;;;;;;;15.88;8.05;;;;;;;12.30;100.00;99332.13;1754504;78;21666;-48
2022/10/19 05:51:59;;;;;;;9.50;6.05;;;;;;;12.23;100.00;99324.52;1773521;78;20998;-49
2022/10/19 05:54:26;;;;;;;12.68;7.55;;;;;;;12.17;100.00;99331.61;1776043;78;20990;-48
2022/10/19 05:56:52;;;;;;;9.80;6.85;;;;;;;12.11;100.00;99331.04;1776681;78;21492;-48
2022/10/19 05:59:19;;;;;;;12.80;7.47;;;;;;;12.08;100.00;99329.86;1773147;78;21900;-48
2022/10/19 06:01:47;;;;;;;12.40;7.40;;;;;;;12.08;100.00;99338.44;1772970;78;21038;-49
2022/10/19 06:04:14;;;;;;;11.85;7.87;;;;;;;12.06;100.00;99342.60;1770880;78;21093;-48
2022/10/19 06:06:41;;;;;;;14.07;7.47;;;;;;;12.07;100.00;99346.17;1771806;79;21869;-49
2022/10/19 06:09:08;;;;;;;15.03;7.42;;;;;;;12.05;100.00;99344.91;1774817;78;21517;-48
2022/10/19 06:11:38;;;;;;;10.40;7.35;;;;;;;12.07;100.00;99350.22;1768435;78;21901;-47
2022/10/19 06:14:13;;;;;;;7.08;6.37;;;;;;;12.07;100.00;99351.09;1773613;78;21066;-49
2022/10/19 06:16:41;;;;;;;8.93;6.20;;;;;;;12.08;100.00;99349.22;1767213;78;21105;-48
2022/10/19 06:19:08;;;;;;;8.55;5.62;;;;;;;12.07;100.00;99361.88;1768598;78;21089;-48
2022/10/19 06:21:36;;;;;;;8.80;7.33;;;;;;;12.09;100.00;99369.37;1770344;78;21623;-48
2022/10/19 06:24:05;;;;;;;11.75;7.62;;;;;;;12.09;100.00;99369.85;1773739;78;21920;-48
2022/10/19 06:26:32;;;;;;;12.63;7.33;;;;;;;12.11;100.00;99365.23;1770269;78;21117;-49
2022/10/19 06:28:59;;;;;;;9.38;7.67;;;;;;;12.12;100.00;99369.20;1769919;78;21046;-48
2022/10/19 06:31:30;;;;;;;9.65;6.97;;;;;;;12.11;100.00;99376.91;1770991;78;21335;-47
2022/10/19 06:33:57;;;;;;;10.60;6.85;;;;;;;12.11;100.00;99372.85;1770812;78;21144;-47
2022/10/19 06:36:27;;;;;;;8.08;6.03;;;;;;;12.09;100.00;99370.72;1772602;78;21306;-48
2022/10/19 06:38:55;;;;;;;8.90;6.53;;;;;;;12.07;100.00;99375.36;1768521;78;21079;-48
2022/10/19 06:41:21;;;;;;;6.65;5.03;;;;;;;12.05;100.00;99374.58;1770999;78;21100;-49
2022/10/19 06:43:52;;;;;;;7.30;4.95;;;;;;;12.07;100.00;99382.59;1767039;78;21104;-48
2022/10/19 06:46:20;;;;;;;10.55;4.47;;;;;;;12.07;100.00;99387.50;1770613;78;21132;-48
2022/10/19 06:48:57;;;;;;;6.87;5.22;;;;;;;12.08;100.00;99379.77;1771852;78;21885;-48
2022/10/19 06:51:25;;;;;;;6.85;3.70;;;;;;;12.10;100.00;99385.95;1743162;79;21044;-47
2022/10/19 06:53:52;;;;;;;5.90;4.17;;;;;;;12.13;100.00;99402.45;1740496;79;21561;-48
2022/10/19 06:56:19;;;;;;;5.05;2.92;;;;;;;12.17;100.00;99408.50;1742215;79;21107;-47
2022/10/19 06:58:48;;;;;;;6.10;3.35;;;;;;;12.21;100.00;99414.99;1742656;79;21028;-48
2022/10/19 07:01:15;;;;;;;3.40;2.15;;;;;;;12.25;100.00;99419.23;1739152;79;21799;-47
2022/10/19 07:03:42;;;;;;;3.77;2.08;;;;;;;12.27;100.00;99424.06;1740564;79;21199;-48
2022/10/19 07:06:11;;;;;;;4.85;2.05;;;;;;;12.29;100.00;99422.14;1738753;79;21064;-48
2022/10/19 07:08:39;;;;;;;3.00;1.40;;;;;;;12.30;100.00;99421.19;1746089;79;21829;-48
2022/10/19 07:11:12;;;;;;;4.90;0.85;;;;;;;12.29;100.00;99418.09;1747433;79;21065;-48
2022/10/19 07:13:38;;;;;;;1.07;0.72;;;;;;;12.27;100.00;99417.31;1741771;79;21843;-48
2022/10/19 07:16:10;;;;;;;1.87;0.88;;;;;;;12.23;100.00;99407.69;1752468;79;21037;-48
2022/10/19 07:18:38;;;;;;;1.20;0.80;;;;;;;12.21;100.00;99400.16;1747018;79;21135;-48
2022/10/19 07:21:08;;;;;;;1.20;0.70;;;;;;;12.23;100.00;99405.46;1749154;79;21033;-47
2022/10/19 07:23:35;;;;;;;0.95;0.70;;;;;;;12.25;100.00;99398.98;1739341;79;22541;-48
2022/10/19 07:26:07;;;;;;;1.45;0.70;;;;;;;12.29;100.00;99397.86;1740846;79;21992;-48
2022/10/19 07:28:34;;;;;;;1.62;0.80;;;;;;;12.34;100.00;99402.48;1739102;79;21385;-48
2022/10/19 07:31:08;;;;;;;0.90;0.68;;;;;;;12.38;100.00;99404.52;1737484;79;21084;-47
2022/10/19 07:33:35;;;;;;;2.40;0.70;;;;;;;12.43;100.00;99398.34;1735912;79;21103;-48
2022/10/19 07:36:04;;;;;;;1.00;0.70;;;;;;;12.46;100.00;99399.05;1741263;79;21076;-48
2022/10/19 07:38:30;;;;;;;1.10;0.68;;;;;;;12.48;100.00;99405.70;1745567;79;21764;-47
2022/10/19 07:41:03;;;;;;;0.98;0.57;;;;;;;12.47;100.00;99406.19;1743680;79;21103;-48
2022/10/19 07:43:30;;;;;;;0.85;0.55;;;;;;;12.46;100.00;99398.17;1743427;79;21445;-48
2022/10/19 07:46:04;;;;;;;0.50;0.40;;;;;;;12.47;100.00;99403.97;1747323;79;21103;-48
2022/10/19 07:48:30;;;;;;;3.08;0.50;;;;;;;12.50;100.00;99400.58;1738906;79;21054;-48
2022/10/19 07:51:00;;;;;;;0.50;0.50;;;;;;;12.57;100.00;99397.52;1738927;79;21951;-48
2022/10/19 07:53:27;;;;;;;1.50;0.60;;;;;;;12.62;100.00;99397.61;1744378;79;20985;-48
2022/10/19 07:55:53;;;;;;;0.90;0.70;;;;;;;12.67;100.00;99383.36;1736090;79;21147;-49
2022/10/19 07:58:20;;;;;;;0.90;0.70;;;;;;;12.73;100.00;99383.45;1738109;79;21603;-49
2022/10/19 08:00:47;;;;;;;1.22;0.60;;;;;;;12.76;100.00;99390.02;1738547;79;21075;-49
2022/10/19 08:03:14;;;;;;;0.62;0.50;;;;;;;12.77;100.00;99374.17;1740514;79;22081;-49
2022/10/19 08:05:40;;;;;;;0.70;0.50;;;;;;;12.77;100.00;99381.80;1737694;79;21107;-49
2022/10/19 08:08:07;;;;;;;0.78;0.50;;;;;;;12.78;100.00;99379.48;1757958;79;21091;-48
2022/10/19 08:10:34;;;;;;;0.80;0.60;;;;;;;12.76;100.00;99378.70;1735569;79;21096;-47
2022/10/19 08:13:00;;;;;;;0.70;0.50;;;;;;;12.73;100.00;99387.02;1738332;79;21070;-48
2022/10/19 08:15:29;;;;;;;2.83;0.55;;;;;;;12.73;100.00;99380.27;1739031;79;21797;-47
2022/10/19 08:17:56;;;;;;;0.70;0.50;;;;;;;12.72;100.00;99375.83;1735457;79;21535;-48
2022/10/19 08:20:23;;;;;;;1.95;0.60;;;;;;;12.72;100.00;99380.36;1739224;79;21091;-48
2022/10/19 08:22:50;;;;;;;1.15;0.70;;;;;;;12.71;100.00;99378.13;1739174;79;21608;-47
2022/10/19 08:25:16;;;;;;;1.30;0.72;;;;;;;12.70;100.00;99375.05;1736017;79;21107;-48
2022/10/19 08:27:43;;;;;;;0.80;0.60;;;;;;;12.70;100.00;99379.09;1739175;79;22650;-48
2022/10/19 08:30:12;;;;;;;0.90;0.62;;;;;;;12.69;100.00;99391.34;1736243;79;21048;-47
2022/10/19 08:32:39;;;;;;;0.80;0.50;;;;;;;12.68;100.00;99380.14;1740267;79;21079;-47
2022/10/19 08:35:06;;;;;;;0.70;0.45;;;;;;;12.69;100.00;99387.28;1733126;80;21132;-48
2022/10/19 08:37:33;;;;;;;0.80;0.50;;;;;;;12.70;100.00;99380.45;1738192;79;21021;-48
2022/10/19 08:39:59;;;;;;;1.77;0.50;;;;;;;12.73;100.00;99380.75;1741294;79;22823;-49
2022/10/19 08:42:50;;;;;;;1.12;0.40;;;;;;;12.76;100.00;99385.45;1738477;79;21040;-48
2022/10/19 08:45:27;;;;;;;0.62;0.40;;;;;;;12.83;100.00;99385.96;1732702;79;21024;-49
2022/10/19 08:48:15;;;;;;;1.12;0.20;;;;;;;12.86;100.00;99389.80;1739641;79;21480;-48
2022/10/19 08:50:43;;;;;;;1.57;0.30;;;;;;;12.89;100.00;99385.08;1739681;79;21037;-47
2022/10/19 08:53:34;;;;;;;0.40;0.30;;;;;;;12.89;100.00;99383.73;1738263;80;22873;-48
2022/10/19 08:56:27;;;;;;;2.12;0.30;;;;;;;12.89;100.00;99395.02;1748709;79;20965;-49
2022/10/19 08:59:27;;;;;;;0.40;0.30;;;;;;;12.87;100.00;99391.05;1742845;79;21437;-48
2022/10/19 09:02:05;;;;;;;1.02;0.20;;;;;;;12.88;100.00;99393.28;1741224;79;21489;-48
2022/10/19 09:04:38;;;;;;;0.88;0.30;;;;;;;12.90;100.00;99403.51;1728427;79;20997;-48
2022/10/19 09:07:26;;;;;;;1.07;0.30;;;;;;;12.90;100.00;99385.95;1741519;79;22992;-47
2022/10/19 09:10:01;;;;;;;0.60;0.30;;;;;;;12.91;100.00;99386.83;1746477;79;21104;-47
2022/10/19 09:12:36;;;;;;;0.93;0.53;;;;;;;12.94;100.00;99387.48;1736700;79;21029;-48
2022/10/19 09:15:06;;;;;;;1.87;0.40;;;;;;;12.98;100.00;99380.06;1738994;79;21115;-48
2022/10/19 09:17:34;;;;;;;1.72;0.40;;;;;;;13.01;100.00;99378.52;1735692;79;21069;-49
2022/10/19 09:20:21;;;;;;;1.25;0.40;;;;;;;13.02;100.00;99374.83;1735117;79;21859;-48
2022/10/19 09:23:06;;;;;;;2.52;0.40;;;;;;;13.05;100.00;99373.29;1741144;79;21068;-48
2022/10/19 09:25:32;;;;;;;0.65;0.25;;;;;;;13.07;100.00;99370.88;1739005;79;26552;-49
2022/10/19 09:28:23;;;;;;;1.00;0.30;;;;;;;13.14;100.00;99367.33;1738120;79;21088;-48
2022/10/19 09:30:50;;;;;;;0.30;0.30;;;;;;;13.19;100.00;99367.41;1735783;79;21130;-48
2022/10/19 09:33:22;;;;;;;0.50;0.30;;;;;;;13.24;100.00;99369.83;1743578;79;23278;-48
2022/10/19 09:35:49;;;;;;;0.65;0.30;;;;;;;13.31;100.00;99373.86;1739175;79;21136;-48
2022/10/19 09:38:16;;;;;;;1.20;0.40;;;;;;;13.36;100.00;99356.84;1740868;79;21056;-47
2022/10/19 09:40:42;;;;;;;1.10;0.35;;;;;;;13.39;100.00;99359.35;1734512;79;21072;-48
2022/10/19 09:43:19;;;;;;;0.60;0.30;;;;;;;13.44;100.00;99355.01;1740103;79;21064;-49
2022/10/19 09:46:04;;;;;;;1.15;0.30;;;;;;;13.47;100.00;99352.95;1732601;79;21888;-49
2022/10/19 09:48:45;;;;;;;4.87;0.40;;;;;;;13.47;100.00;99354.30;1741878;79;21047;-47
2022/10/19 09:51:13;;;;;;;0.40;0.23;;;;;;;13.47;100.00;99349.38;1744486;79;21049;-49
2022/10/19 09:53:53;;;;;;;0.60;0.30;;;;;;;13.46;100.00;99365.22;1737010;79;21496;-48
2022/10/19 09:56:26;;;;;;;0.50;0.30;;;;;;;13.47;100.00;99357.48;1738327;79;21491;-48
2022/10/19 09:58:57;;;;;;;1.37;0.40;;;;;;;13.47;100.00;99350.73;1740443;79;21039;-46
2022/10/19 10:01:36;;;;;;;0.60;0.40;;;;;;;13.49;100.00;99353.73;1741006;80;21169;-48
2022/10/19 10:04:09;;;;;;;1.32;0.40;;;;;;;13.48;100.00;99347.93;1740883;80;21518;-48
2022/10/19 10:06:37;;;;;;;0.42;0.30;;;;;;;13.46;100.00;99351.22;1738098;79;21503;-47
2022/10/19 10:09:04;;;;;;;0.80;0.40;;;;;;;13.45;100.00;99348.13;1729663;79;21076;-48
2022/10/19 10:11:37;;;;;;;1.67;0.40;;;;;;;13.44;100.00;99346.39;1736519;79;22001;-49
2022/10/19 10:14:35;;;;;;;2.25;0.37;;;;;;;13.45;100.00;99344.06;1748926;79;21048;-49
2022/10/19 10:17:13;;;;;;;0.98;0.30;;;;;;;13.46;100.00;99341.75;1737734;79;21090;-49
2022/10/19 10:20:01;;;;;;;1.12;0.30;;;;;;;13.49;100.00;99334.80;1737022;79;21063;-49
2022/10/19 10:22:32;;;;;;;0.50;0.20;;;;;;;13.58;100.00;99337.37;1743194;79;21091;-49
2022/10/19 10:24:59;;;;;;;0.28;0.20;;;;;;;13.58;100.00;99337.37;1738316;79;21815;-50
2022/10/19 10:27:36;;;;;;;0.45;0.30;;;;;;;13.62;100.00;99334.83;1739539;79;21030;-49
2022/10/19 10:30:13;;;;;;;0.23;0.20;;;;;;;13.66;100.00;99332.31;1743621;79;21485;-48
2022/10/19 10:32:51;;;;;;;1.37;0.30;;;;;;;13.72;100.00;99326.48;1738566;79;21092;-47
2022/10/19 10:35:32;;;;;;;0.50;0.30;;;;;;;13.78;100.00;99325.22;1741352;79;21040;-49
2022/10/19 10:38:15;;;;;;;1.27;0.33;;;;;;;13.84;100.00;99315.33;1746304;79;21807;-49
2022/10/19 10:40:50;;;;;;;0.50;0.40;;;;;;;13.89;100.00;99318.56;1736415;79;21048;-48
2022/10/19 10:43:17;;;;;;;0.72;0.40;;;;;;;13.95;100.00;99320.88;1719490;81;21755;-49
2022/10/19 10:45:45;;;;;;;0.70;0.47;;;;;;;14.00;100.00;99311.95;1741685;79;21054;-49
2022/10/19 10:48:28;;;;;;;0.47;0.30;;;;;;;14.03;100.00;99314.45;1747676;79;22476;-48
2022/10/19 10:50:56;;;;;;;1.17;0.40;;;;;;;14.03;100.00;99316.64;1741866;79;21769;-50
2022/10/19 10:53:38;;;;;;;0.40;0.30;;;;;;;14.03;100.00;99315.28;1731362;80;21072;-48
2022/10/19 10:56:09;;;;;;;0.40;0.28;;;;;;;14.00;100.00;99318.70;1732581;80;21142;-48
2022/10/19 10:58:46;;;;;;;0.30;0.20;;;;;;;14.00;100.00;99318.70;1773656;79;21530;-49
2022/10/19 11:01:27;;;;;;;2.55;0.30;;;;;;;13.95;100.00;99313.59;1736402;80;21181;-49
2022/10/19 11:04:22;;;;;;;0.30;0.30;;;;;;;13.90;100.00;99313.54;1764846;79;21921;-49
2022/10/19 11:06:59;;;;;;;0.53;0.35;;;;;;;13.85;100.00;99303.53;1736011;80;21033;-48
2022/10/19 11:09:34;;;;;;;0.80;0.35;;;;;;;13.81;100.00;99307.41;1736233;80;21042;-49
2022/10/19 11:12:03;;;;;;;2.50;0.30;;;;;;;13.78;100.00;99302.23;1735712;80;22008;-48
2022/10/19 11:14:40;;;;;;;0.88;0.40;;;;;;;13.75;100.00;99297.89;1745735;79;21158;-48
2022/10/19 11:17:16;;;;;;;0.80;0.40;;;;;;;13.75;100.00;99291.61;1739324;80;23088;-49
2022/10/19 11:19:44;;;;;;;0.50;0.40;;;;;;;13.74;100.00;99287.16;1760636;79;21076;-48
2022/10/19 11:22:30;;;;;;;0.57;0.30;;;;;;;13.73;100.00;99278.66;1729148;80;21542;-48
2022/10/19 11:25:27;;;;;;;0.55;0.20;;;;;;;13.75;100.00;99282.14;1732943;80;21064;-48
2022/10/19 11:28:20;;;;;;;0.95;0.28;;;;;;;13.78;100.00;99273.83;1762122;79;21044;-49
2022/10/19 11:30:58;;;;;;;1.95;0.30;;;;;;;13.82;100.00;99270.79;1765692;79;21799;-48
2022/10/19 11:33:59;;;;;;;0.98;0.30;;;;;;;13.86;100.00;99254.73;1731275;80;21040;-49
2022/10/19 11:36:57;;;;;;;1.77;0.30;;;;;;;13.91;100.00;99252.56;1747964;79;21527;-49
2022/10/19 11:39:49;;;;;;;0.57;0.30;;;;;;;13.93;100.00;99260.09;1756929;79;21057;-49
2022/10/19 11:42:48;;;;;;;0.50;0.37;;;;;;;13.96;100.00;99252.23;1743351;79;21067;-49
2022/10/19 11:45:24;;;;;;;1.90;0.20;;;;;;;13.96;100.00;99250.88;1743762;79;21084;-48
2022/10/19 11:48:36;;;;;;;1.22;0.50;;;;;;;13.94;100.00;99251.50;1749935;79;20980;-49